PAL0818 RPVM-RPMD
Flight info
| Callsign | PAL0818 |
|---|---|
| Flight time | 0h 39m |
| Altitude | 29000 |
| Route | BAMPA2A BAMPA W14 BN W9 RIMAR RIMAR2R |
| Aircraft | B738/M-SDE2E3FGHIRWXY/LB1 |
Departure
| Time | 2026-04-28 14:11 |
|---|---|
| Airport | Mactan Cebu International Airport (RPVM) |
Arrival
| Time | 2026-04-28 14:50 |
|---|---|
| Airport | Francisco Bangoy International Airport (RPMD) |
| Time | Latitude | Longitude | Altitude | Speed | Heading |
|---|---|---|---|---|---|
| 2026-04-28 13:48 | 10.31505 | 123.97930 | 42 ft | 0 kts | 315° |
| 2026-04-28 14:01 | 10.31499 | 123.97936 | 42 ft | 2 kts | 315° |
| 2026-04-28 14:02 | 10.31488 | 123.97948 | 42 ft | 2 kts | 315° |
| 2026-04-28 14:02 | 10.31477 | 123.97959 | 42 ft | 2 kts | 315° |
| 2026-04-28 14:02 | 10.31466 | 123.97971 | 41 ft | 2 kts | 315° |
| 2026-04-28 14:02 | 10.31456 | 123.97980 | 41 ft | 0 kts | 315° |
| 2026-04-28 14:03 | 10.31450 | 123.97989 | 41 ft | 1 kts | 273° |
| 2026-04-28 14:03 | 10.31453 | 123.98000 | 41 ft | 0 kts | 223° |
| 2026-04-28 14:03 | 10.31457 | 123.98003 | 41 ft | 0 kts | 227° |
| 2026-04-28 14:05 | 10.31456 | 123.98003 | 41 ft | 1 kts | 227° |
| 2026-04-28 14:05 | 10.31433 | 123.97977 | 41 ft | 8 kts | 228° |
| 2026-04-28 14:05 | 10.31380 | 123.97917 | 40 ft | 13 kts | 224° |
| 2026-04-28 14:06 | 10.31297 | 123.97935 | 39 ft | 14 kts | 134° |
| 2026-04-28 14:06 | 10.31204 | 123.97981 | 37 ft | 16 kts | 209° |
| 2026-04-28 14:06 | 10.31110 | 123.97893 | 37 ft | 18 kts | 225° |
| 2026-04-28 14:06 | 10.31005 | 123.97787 | 36 ft | 22 kts | 225° |
| 2026-04-28 14:07 | 10.30877 | 123.97658 | 33 ft | 27 kts | 225° |
| 2026-04-28 14:07 | 10.30724 | 123.97504 | 27 ft | 32 kts | 225° |
| 2026-04-28 14:07 | 10.30568 | 123.97347 | 26 ft | 29 kts | 224° |
| 2026-04-28 14:07 | 10.30428 | 123.97208 | 24 ft | 25 kts | 224° |
| 2026-04-28 14:08 | 10.30301 | 123.97081 | 22 ft | 24 kts | 225° |
| 2026-04-28 14:08 | 10.30182 | 123.96959 | 23 ft | 23 kts | 225° |
| 2026-04-28 14:08 | 10.30070 | 123.96847 | 23 ft | 20 kts | 224° |
| 2026-04-28 14:08 | 10.29974 | 123.96749 | 24 ft | 16 kts | 225° |
| 2026-04-28 14:09 | 10.29895 | 123.96699 | 25 ft | 10 kts | 170° |
| 2026-04-28 14:09 | 10.29840 | 123.96735 | 25 ft | 7 kts | 137° |
| 2026-04-28 14:09 | 10.29796 | 123.96784 | 24 ft | 11 kts | 131° |
| 2026-04-28 14:09 | 10.29732 | 123.96867 | 22 ft | 12 kts | 113° |
| 2026-04-28 14:10 | 10.29739 | 123.96919 | 22 ft | 12 kts | 55° |
| 2026-04-28 14:11 | 10.32138 | 124.00159 | 1365 ft | 220 kts | 88° |
| 2026-04-28 14:11 | 10.31629 | 124.01685 | 2173 ft | 229 kts | 128° |
| 2026-04-28 14:11 | 10.30204 | 124.02576 | 2735 ft | 248 kts | 168° |
| 2026-04-28 14:11 | 10.28994 | 124.02651 | 3368 ft | 254 kts | 180° |
| 2026-04-28 14:12 | 10.26655 | 124.03135 | 4761 ft | 265 kts | 147° |
| 2026-04-28 14:12 | 10.25387 | 124.04571 | 5946 ft | 267 kts | 120° |
| 2026-04-28 14:12 | 10.24376 | 124.06265 | 6976 ft | 275 kts | 126° |
| 2026-04-28 14:12 | 10.23115 | 124.07851 | 8081 ft | 280 kts | 131° |
| 2026-04-28 14:13 | 10.21796 | 124.09353 | 9105 ft | 285 kts | 133° |
| 2026-04-28 14:13 | 10.20408 | 124.10882 | 10143 ft | 289 kts | 133° |
| 2026-04-28 14:13 | 10.18980 | 124.12463 | 10821 ft | 306 kts | 132° |
| 2026-04-28 14:13 | 10.17415 | 124.14201 | 11319 ft | 328 kts | 132° |
| 2026-04-28 14:14 | 10.15725 | 124.16076 | 11718 ft | 352 kts | 132° |
| 2026-04-28 14:14 | 10.13992 | 124.18001 | 12086 ft | 374 kts | 132° |
| 2026-04-28 14:14 | 10.12145 | 124.20052 | 12674 ft | 386 kts | 132° |
| 2026-04-28 14:14 | 10.10216 | 124.22193 | 13436 ft | 394 kts | 132° |
| 2026-04-28 14:15 | 10.08305 | 124.24316 | 14197 ft | 399 kts | 132° |
| 2026-04-28 14:15 | 10.06378 | 124.26453 | 14983 ft | 403 kts | 132° |
| 2026-04-28 14:15 | 10.04411 | 124.28636 | 15714 ft | 407 kts | 132° |
| 2026-04-28 14:15 | 10.02429 | 124.30836 | 16434 ft | 411 kts | 132° |
| 2026-04-28 14:16 | 10.00408 | 124.33077 | 17126 ft | 416 kts | 132° |
| 2026-04-28 14:16 | 9.98373 | 124.35334 | 17795 ft | 420 kts | 132° |
| 2026-04-28 14:16 | 9.96333 | 124.37596 | 18433 ft | 424 kts | 132° |
| 2026-04-28 14:16 | 9.94241 | 124.39915 | 19061 ft | 428 kts | 132° |
| 2026-04-28 14:17 | 9.92157 | 124.42226 | 19662 ft | 431 kts | 132° |
| 2026-04-28 14:17 | 9.90002 | 124.44614 | 20256 ft | 435 kts | 132° |
| 2026-04-28 14:17 | 9.87814 | 124.47037 | 20833 ft | 439 kts | 132° |
| 2026-04-28 14:17 | 9.86342 | 124.48669 | 21201 ft | 441 kts | 132° |
| 2026-04-28 14:18 | 9.83379 | 124.51949 | 21921 ft | 446 kts | 132° |
| 2026-04-28 14:18 | 9.81192 | 124.54372 | 22419 ft | 449 kts | 132° |
| 2026-04-28 14:18 | 9.78978 | 124.56822 | 22908 ft | 453 kts | 132° |
| 2026-04-28 14:18 | 9.76720 | 124.59322 | 23381 ft | 456 kts | 132° |
| 2026-04-28 14:19 | 9.74515 | 124.61762 | 23832 ft | 459 kts | 132° |
| 2026-04-28 14:19 | 9.72269 | 124.64246 | 24266 ft | 462 kts | 132° |
| 2026-04-28 14:19 | 9.70021 | 124.66730 | 24693 ft | 465 kts | 133° |
| 2026-04-28 14:19 | 9.67763 | 124.69227 | 25098 ft | 468 kts | 133° |
| 2026-04-28 14:20 | 9.65414 | 124.71824 | 25506 ft | 470 kts | 133° |
| 2026-04-28 14:20 | 9.63098 | 124.74383 | 25887 ft | 473 kts | 133° |
| 2026-04-28 14:20 | 9.60790 | 124.76933 | 26266 ft | 475 kts | 133° |
| 2026-04-28 14:20 | 9.58489 | 124.79475 | 26670 ft | 476 kts | 133° |
| 2026-04-28 14:21 | 9.56166 | 124.82041 | 27095 ft | 477 kts | 133° |
| 2026-04-28 14:21 | 9.53857 | 124.84590 | 27529 ft | 477 kts | 133° |
| 2026-04-28 14:21 | 9.51533 | 124.87156 | 27970 ft | 477 kts | 133° |
| 2026-04-28 14:21 | 9.49247 | 124.89679 | 28412 ft | 476 kts | 133° |
| 2026-04-28 14:22 | 9.46939 | 124.92225 | 28851 ft | 475 kts | 133° |
| 2026-04-28 14:22 | 9.44626 | 124.94774 | 29009 ft | 472 kts | 133° |
| 2026-04-28 14:22 | 9.39982 | 124.99822 | 29001 ft | 468 kts | 133° |
| 2026-04-28 14:23 | 9.35348 | 125.04853 | 29001 ft | 467 kts | 133° |
| 2026-04-28 14:23 | 9.30686 | 125.09914 | 29000 ft | 467 kts | 133° |
| 2026-04-28 14:24 | 9.26109 | 125.14882 | 29000 ft | 467 kts | 133° |
| 2026-04-28 14:24 | 9.21522 | 125.19860 | 29000 ft | 467 kts | 133° |
| 2026-04-28 14:25 | 9.16929 | 125.24842 | 29000 ft | 467 kts | 133° |
| 2026-04-28 14:25 | 9.12360 | 125.29797 | 29000 ft | 467 kts | 133° |
| 2026-04-28 14:26 | 9.08572 | 125.33903 | 29000 ft | 467 kts | 133° |
| 2026-04-28 14:26 | 9.03223 | 125.39699 | 29000 ft | 467 kts | 133° |
| 2026-04-28 14:27 | 8.99291 | 125.43826 | 28997 ft | 467 kts | 138° |
| 2026-04-28 14:27 | 8.95681 | 125.46560 | 28998 ft | 467 kts | 149° |
| 2026-04-28 14:27 | 8.92616 | 125.47993 | 29000 ft | 467 kts | 161° |
| 2026-04-28 14:28 | 8.86044 | 125.49272 | 29003 ft | 467 kts | 174° |
| 2026-04-28 14:28 | 8.80418 | 125.49837 | 28999 ft | 467 kts | 174° |
| 2026-04-28 14:29 | 8.73705 | 125.50542 | 28999 ft | 467 kts | 174° |
| 2026-04-28 14:29 | 8.66981 | 125.51234 | 28999 ft | 467 kts | 174° |
| 2026-04-28 14:30 | 8.59065 | 125.52043 | 28999 ft | 467 kts | 174° |
| 2026-04-28 14:30 | 8.52301 | 125.52731 | 29000 ft | 467 kts | 174° |
| 2026-04-28 14:31 | 8.46657 | 125.53249 | 28999 ft | 467 kts | 175° |
| 2026-04-28 14:31 | 8.39920 | 125.53847 | 29000 ft | 467 kts | 175° |
| 2026-04-28 14:32 | 8.33017 | 125.54465 | 28826 ft | 470 kts | 175° |
| 2026-04-28 14:32 | 8.28463 | 125.54872 | 28469 ft | 467 kts | 175° |
| 2026-04-28 14:32 | 8.25070 | 125.55176 | 28200 ft | 464 kts | 175° |
| 2026-04-28 14:33 | 8.21731 | 125.55475 | 27942 ft | 464 kts | 175° |
| 2026-04-28 14:33 | 8.18353 | 125.55778 | 27679 ft | 465 kts | 175° |
| 2026-04-28 14:33 | 8.16076 | 125.55981 | 27503 ft | 465 kts | 175° |
| 2026-04-28 14:33 | 8.11629 | 125.56380 | 26352 ft | 459 kts | 175° |
| 2026-04-28 14:34 | 8.04927 | 125.56980 | 23851 ft | 463 kts | 175° |
| 2026-04-28 14:34 | 8.01621 | 125.57232 | 23016 ft | 445 kts | 178° |
| 2026-04-28 14:34 | 7.99484 | 125.57275 | 22542 ft | 439 kts | 180° |
| 2026-04-28 14:35 | 7.95246 | 125.56956 | 21468 ft | 445 kts | 190° |
| 2026-04-28 14:35 | 7.92130 | 125.56211 | 20629 ft | 429 kts | 195° |
| 2026-04-28 14:35 | 7.89202 | 125.55363 | 19841 ft | 433 kts | 196° |
| 2026-04-28 14:35 | 7.86236 | 125.54513 | 19003 ft | 421 kts | 195° |
| 2026-04-28 14:36 | 7.83390 | 125.53700 | 18227 ft | 413 kts | 195° |
| 2026-04-28 14:36 | 7.80486 | 125.52864 | 17412 ft | 421 kts | 196° |
| 2026-04-28 14:36 | 7.77672 | 125.52048 | 16604 ft | 401 kts | 196° |
| 2026-04-28 14:36 | 7.74884 | 125.51237 | 15833 ft | 408 kts | 196° |
| 2026-04-28 14:37 | 7.72093 | 125.50422 | 15052 ft | 404 kts | 196° |
| 2026-04-28 14:37 | 7.69365 | 125.49624 | 14296 ft | 392 kts | 196° |
| 2026-04-28 14:37 | 7.67573 | 125.49099 | 13806 ft | 396 kts | 196° |
| 2026-04-28 14:37 | 7.63922 | 125.48029 | 12771 ft | 385 kts | 196° |
| 2026-04-28 14:38 | 7.61282 | 125.47257 | 12069 ft | 386 kts | 196° |
| 2026-04-28 14:38 | 7.58674 | 125.46493 | 11512 ft | 371 kts | 196° |
| 2026-04-28 14:38 | 7.56189 | 125.45765 | 11168 ft | 349 kts | 196° |
| 2026-04-28 14:38 | 7.53861 | 125.45084 | 10992 ft | 328 kts | 196° |
| 2026-04-28 14:39 | 7.52332 | 125.44636 | 10888 ft | 335 kts | 196° |
| 2026-04-28 14:39 | 7.49345 | 125.43762 | 10646 ft | 310 kts | 196° |
| 2026-04-28 14:39 | 7.47239 | 125.43146 | 10482 ft | 292 kts | 196° |
| 2026-04-28 14:39 | 7.45250 | 125.42563 | 10330 ft | 290 kts | 196° |
| 2026-04-28 14:40 | 7.43292 | 125.41990 | 10074 ft | 279 kts | 196° |
| 2026-04-28 14:40 | 7.42657 | 125.41805 | 9969 ft | 276 kts | 196° |
| 2026-04-28 14:40 | 7.39549 | 125.40895 | 9365 ft | 267 kts | 196° |
| 2026-04-28 14:40 | 7.38298 | 125.40529 | 9131 ft | 271 kts | 196° |
| 2026-04-28 14:41 | 7.36399 | 125.39973 | 8765 ft | 269 kts | 196° |
| 2026-04-28 14:41 | 7.33915 | 125.39455 | 8300 ft | 263 kts | 179° |
| 2026-04-28 14:41 | 7.32010 | 125.39746 | 7957 ft | 268 kts | 167° |
| 2026-04-28 14:41 | 7.30133 | 125.40179 | 7595 ft | 262 kts | 167° |
| 2026-04-28 14:42 | 7.28306 | 125.40572 | 7254 ft | 261 kts | 168° |
| 2026-04-28 14:42 | 7.26425 | 125.40974 | 6899 ft | 258 kts | 168° |
| 2026-04-28 14:42 | 7.24588 | 125.41367 | 6560 ft | 263 kts | 168° |
| 2026-04-28 14:42 | 7.22703 | 125.41767 | 6199 ft | 258 kts | 168° |
| 2026-04-28 14:43 | 7.20913 | 125.42147 | 5860 ft | 253 kts | 168° |
| 2026-04-28 14:43 | 7.19057 | 125.42539 | 5513 ft | 259 kts | 168° |
| 2026-04-28 14:43 | 7.17271 | 125.42915 | 5170 ft | 253 kts | 168° |
| 2026-04-28 14:43 | 7.15478 | 125.43294 | 4835 ft | 252 kts | 168° |
| 2026-04-28 14:44 | 7.13694 | 125.43670 | 4503 ft | 255 kts | 168° |
| 2026-04-28 14:44 | 7.11923 | 125.44044 | 4338 ft | 244 kts | 168° |
| 2026-04-28 14:44 | 7.10235 | 125.44399 | 4264 ft | 230 kts | 168° |
| 2026-04-28 14:44 | 7.08660 | 125.44732 | 4195 ft | 214 kts | 168° |
| 2026-04-28 14:45 | 7.07254 | 125.45174 | 4100 ft | 194 kts | 150° |
| 2026-04-28 14:45 | 7.06317 | 125.46098 | 3870 ft | 174 kts | 121° |
| 2026-04-28 14:45 | 7.05939 | 125.46819 | 3701 ft | 158 kts | 117° |
| 2026-04-28 14:45 | 7.05404 | 125.47810 | 3521 ft | 154 kts | 118° |
| 2026-04-28 14:46 | 7.04694 | 125.49127 | 3278 ft | 155 kts | 118° |
| 2026-04-28 14:46 | 7.04150 | 125.50133 | 3098 ft | 153 kts | 118° |
| 2026-04-28 14:46 | 7.03616 | 125.51122 | 2941 ft | 154 kts | 118° |
| 2026-04-28 14:46 | 7.03081 | 125.52117 | 2774 ft | 154 kts | 117° |
| 2026-04-28 14:47 | 7.02876 | 125.53201 | 2599 ft | 153 kts | 77° |
| 2026-04-28 14:47 | 7.03484 | 125.54119 | 2500 ft | 153 kts | 42° |
| 2026-04-28 14:47 | 7.04250 | 125.54934 | 2366 ft | 153 kts | 49° |
| 2026-04-28 14:47 | 7.04990 | 125.55778 | 2161 ft | 151 kts | 49° |
| 2026-04-28 14:48 | 7.05703 | 125.56606 | 1955 ft | 149 kts | 49° |
| 2026-04-28 14:48 | 7.06407 | 125.57425 | 1745 ft | 149 kts | 49° |
| 2026-04-28 14:48 | 7.07105 | 125.58236 | 1520 ft | 144 kts | 49° |
| 2026-04-28 14:48 | 7.07782 | 125.59025 | 1333 ft | 144 kts | 49° |
| 2026-04-28 14:49 | 7.08466 | 125.59821 | 1129 ft | 147 kts | 49° |
| 2026-04-28 14:49 | 7.09173 | 125.60644 | 912 ft | 148 kts | 49° |
| 2026-04-28 14:49 | 7.09865 | 125.61450 | 699 ft | 146 kts | 49° |
| 2026-04-28 14:49 | 7.10565 | 125.62264 | 494 ft | 147 kts | 49° |
| 2026-04-28 14:50 | 7.11257 | 125.63071 | 283 ft | 145 kts | 49° |
| 2026-04-28 14:50 | 7.11919 | 125.63840 | 106 ft | 132 kts | 49° |
| 2026-04-28 14:50 | 7.12357 | 125.64349 | 104 ft | 43 kts | 49° |
| 2026-04-28 14:50 | 7.12507 | 125.64522 | 104 ft | 16 kts | 48° |
| 2026-04-28 14:51 | 7.12568 | 125.64552 | 104 ft | 7 kts | 345° |
| 2026-04-28 14:51 | 7.12605 | 125.64531 | 104 ft | 4 kts | 325° |
| 2026-04-28 14:51 | 7.12665 | 125.64484 | 104 ft | 16 kts | 319° |
| 2026-04-28 14:51 | 7.12762 | 125.64478 | 104 ft | 17 kts | 45° |
| 2026-04-28 14:52 | 7.12842 | 125.64560 | 104 ft | 9 kts | 11° |
| 2026-04-28 14:52 | 7.12880 | 125.64542 | 104 ft | 3 kts | 322° |
| 2026-04-28 14:52 | 7.12904 | 125.64523 | 104 ft | 4 kts | 319° |
| 2026-04-28 14:52 | 7.12913 | 125.64514 | 104 ft | 0 kts | 319° |